createdAt,value
2023-05-01T00:00:08.172Z,1.40
2023-05-01T00:02:37.583Z,1.50
2023-05-01T00:05:06.159Z,1.43
2023-05-01T00:07:34.133Z,3.00
2023-05-01T00:10:02.327Z,2.50
2023-05-01T00:12:31.261Z,2.20
2023-05-01T00:14:59.823Z,2.63
2023-05-01T00:17:30.640Z,2.00
2023-05-01T00:20:00.166Z,2.07
2023-05-01T00:22:28.487Z,2.30
2023-05-01T00:24:56.651Z,1.93
2023-05-01T00:27:24.701Z,1.90
2023-05-01T00:29:52.875Z,1.97
2023-05-01T00:32:20.877Z,2.00
2023-05-01T00:34:49.739Z,1.93
2023-05-01T00:37:17.792Z,5.20
2023-05-01T00:39:46.141Z,1.63
2023-05-01T00:42:14.273Z,5.93
2023-05-01T00:44:42.543Z,2.87
2023-05-01T00:47:10.698Z,2.50
2023-05-01T00:49:39.112Z,2.00
2023-05-01T00:52:07.243Z,1.90
2023-05-01T00:54:35.464Z,1.80
2023-05-01T00:57:03.776Z,1.70
2023-05-01T00:59:31.762Z,1.73
2023-05-01T01:02:02.490Z,1.87
2023-05-01T01:04:32.737Z,1.77
2023-05-01T01:07:22.018Z,1.40
2023-05-01T01:10:00.669Z,1.43
2023-05-01T01:12:36.871Z,1.50
2023-05-01T01:15:26.068Z,1.40
2023-05-01T01:18:15.386Z,1.87
2023-05-01T01:21:12.321Z,1.30
2023-05-01T01:24:16.232Z,1.17
2023-05-01T01:27:11.157Z,1.33
2023-05-01T01:30:01.131Z,1.50
2023-05-01T01:32:44.958Z,1.37
2023-05-01T01:35:20.509Z,1.90
2023-05-01T01:38:08.818Z,1.60
2023-05-01T01:40:55.066Z,1.70
2023-05-01T01:43:24.931Z,2.20
2023-05-01T01:46:01.553Z,2.80
2023-05-01T01:48:38.770Z,2.80
2023-05-01T01:51:11.249Z,2.60
2023-05-01T01:53:41.352Z,2.80
2023-05-01T01:56:12.386Z,2.53
2023-05-01T01:58:44.498Z,2.80
2023-05-01T02:01:14.573Z,2.80
2023-05-01T02:03:44.550Z,2.77
2023-05-01T02:06:14.151Z,2.80
2023-05-01T02:08:45.030Z,2.73
2023-05-01T02:11:14.832Z,2.97
2023-05-01T02:13:45.046Z,4.90
2023-05-01T02:16:13.738Z,3.10
2023-05-01T02:18:44.377Z,2.70
2023-05-01T02:21:12.987Z,3.47
2023-05-01T02:23:41.439Z,4.10
2023-05-01T02:26:19.002Z,3.40
2023-05-01T02:28:47.117Z,3.33
2023-05-01T02:31:15.439Z,3.93
2023-05-01T02:36:34.036Z,4.27
2023-05-01T02:39:04.740Z,3.90
2023-05-01T02:41:34.801Z,3.40
2023-05-01T02:44:04.566Z,3.47
2023-05-01T02:46:36.392Z,4.07
2023-05-01T02:49:05.057Z,4.13
2023-05-01T02:51:36.077Z,4.10
2023-05-01T02:54:04.899Z,4.50
2023-05-01T02:56:33.746Z,4.37
2023-05-01T02:59:01.701Z,3.90
2023-05-01T03:01:30.266Z,3.67
2023-05-01T03:04:03.078Z,3.83
2023-05-01T03:06:32.679Z,4.00
2023-05-01T03:09:01.449Z,3.60
2023-05-01T03:11:29.486Z,3.53
2023-05-01T03:13:57.507Z,3.70
2023-05-01T03:16:28.548Z,3.87
2023-05-01T03:19:00.338Z,3.70
2023-05-01T03:21:28.727Z,3.43
2023-05-01T03:23:57.981Z,3.83
2023-05-01T03:26:30.453Z,4.07
2023-05-01T03:29:01.643Z,3.60
2023-05-01T03:31:29.748Z,3.30
2023-05-01T03:33:58.175Z,3.77
2023-05-01T03:36:27.522Z,3.80
2023-05-01T03:38:55.751Z,3.90
2023-05-01T03:41:27.893Z,3.10
2023-05-01T03:43:55.835Z,3.30
2023-05-01T03:46:26.592Z,3.60
2023-05-01T03:48:55.125Z,3.33
2023-05-01T03:51:23.177Z,3.60
2023-05-01T03:53:52.855Z,3.20
2023-05-01T03:56:21.158Z,3.50
2023-05-01T03:58:49.281Z,3.10
2023-05-01T04:01:17.322Z,3.23
2023-05-01T04:03:46.455Z,3.00
2023-05-01T04:06:14.692Z,3.00
2023-05-01T04:08:42.868Z,3.07
2023-05-01T04:11:14.080Z,2.80
2023-05-01T04:13:42.301Z,3.17
2023-05-01T04:16:11.346Z,3.03
2023-05-01T04:18:39.707Z,2.70
2023-05-01T04:21:07.900Z,2.37
2023-05-01T04:23:36.689Z,2.80
2023-05-01T04:26:05.224Z,2.83
2023-05-01T04:28:36.719Z,2.93
2023-05-01T04:31:08.114Z,2.80
2023-05-01T04:33:36.120Z,2.97
2023-05-01T04:36:07.846Z,2.83
2023-05-01T04:38:37.811Z,2.70
2023-05-01T04:41:06.710Z,3.00
2023-05-01T04:43:35.104Z,2.70
2023-05-01T04:46:06.821Z,2.80
2023-05-01T04:48:34.929Z,2.90
2023-05-01T04:51:04.387Z,2.77
2023-05-01T04:53:32.521Z,2.63
2023-05-01T04:56:00.719Z,2.30
2023-05-01T04:58:28.696Z,2.17
2023-05-01T05:00:56.945Z,2.43
2023-05-01T05:03:25.805Z,2.40
2023-05-01T05:05:54.235Z,2.30
2023-05-01T05:08:23.185Z,2.70
2023-05-01T05:10:58.178Z,2.57
2023-05-01T05:13:26.648Z,2.50
2023-05-01T05:15:55.452Z,2.57
2023-05-01T05:18:23.943Z,2.80
2023-05-01T05:20:54.877Z,2.77
2023-05-01T05:23:23.512Z,2.70
2023-05-01T05:25:52.076Z,3.00
2023-05-01T05:28:20.912Z,2.60
2023-05-01T05:30:49.395Z,3.03
2023-05-01T05:33:17.719Z,2.97
2023-05-01T05:35:46.508Z,2.40
2023-05-01T05:38:14.794Z,2.67
2023-05-01T05:40:42.914Z,2.70
2023-05-01T05:43:13.734Z,3.10
2023-05-01T05:45:44.182Z,2.47
2023-05-01T05:48:12.941Z,2.50
2023-05-01T05:50:44.516Z,2.60
2023-05-01T05:53:13.699Z,2.20
2023-05-01T05:55:45.771Z,2.73
2023-05-01T05:58:20.848Z,2.40
2023-05-01T06:00:50.293Z,2.97
2023-05-01T06:03:18.549Z,2.50
2023-05-01T06:05:46.890Z,3.40
2023-05-01T06:08:15.598Z,3.00
2023-05-01T06:10:44.489Z,2.57
2023-05-01T06:13:14.829Z,2.83
2023-05-01T06:15:46.825Z,2.43
2023-05-01T06:18:15.109Z,2.33
2023-05-01T06:20:43.840Z,2.27
2023-05-01T06:23:15.894Z,1.80
2023-05-01T06:25:44.732Z,2.30
2023-05-01T06:28:12.908Z,2.30
2023-05-01T06:30:41.063Z,2.33
2023-05-01T06:33:10.684Z,2.40
2023-05-01T06:35:42.142Z,2.60
2023-05-01T06:38:10.193Z,2.13
2023-05-01T06:40:39.017Z,2.00
2023-05-01T06:43:07.746Z,2.37
2023-05-01T06:45:36.323Z,2.83
2023-05-01T06:48:06.390Z,2.80
2023-05-01T06:50:34.984Z,3.03
2023-05-01T06:53:03.553Z,3.83
2023-05-01T06:55:34.556Z,2.87
2023-05-01T06:58:12.646Z,3.17
2023-05-01T07:00:52.770Z,2.90
2023-05-01T07:03:22.041Z,3.00
2023-05-01T07:05:52.078Z,5.03
2023-05-01T07:08:20.547Z,3.03
2023-05-01T07:10:50.536Z,3.60
2023-05-01T07:13:20.201Z,3.03
2023-05-01T07:15:49.433Z,3.00
2023-05-01T07:18:18.008Z,2.97
2023-05-01T07:20:46.104Z,2.87
2023-05-01T07:23:14.759Z,2.80
2023-05-01T07:25:45.342Z,2.87
2023-05-01T07:28:13.573Z,2.97
2023-05-01T07:30:41.753Z,2.27
2023-05-01T07:33:11.782Z,3.23
2023-05-01T07:35:40.007Z,2.90
2023-05-01T07:38:17.051Z,2.43
2023-05-01T07:40:45.448Z,2.60
2023-05-01T07:43:14.142Z,2.27
2023-05-01T07:45:43.207Z,1.90
2023-05-01T07:48:11.833Z,2.30
2023-05-01T07:50:43.439Z,2.20
2023-05-01T07:53:12.122Z,1.90
2023-05-01T07:55:40.976Z,2.30
2023-05-01T07:58:09.421Z,2.23
2023-05-01T08:00:37.571Z,1.83
2023-05-01T08:03:07.104Z,1.50
2023-05-01T08:05:36.128Z,1.60
2023-05-01T08:08:05.072Z,1.70
2023-05-01T08:10:33.160Z,1.53
2023-05-01T08:13:01.223Z,1.80
2023-05-01T08:15:29.442Z,1.43
2023-05-01T08:17:57.820Z,1.60
2023-05-01T08:20:26.106Z,3.70
2023-05-01T08:22:54.855Z,1.67
2023-05-01T08:25:23.428Z,1.30
2023-05-01T08:27:52.274Z,1.20
2023-05-01T08:30:20.870Z,1.07
2023-05-01T08:32:48.949Z,0.93
2023-05-01T08:35:17.336Z,1.10
2023-05-01T08:37:45.541Z,1.30
2023-05-01T08:40:14.960Z,1.30
2023-05-01T08:42:44.358Z,1.47
2023-05-01T08:45:13.592Z,1.20
2023-05-01T08:47:43.703Z,1.07
2023-05-01T08:50:14.568Z,0.90
2023-05-01T08:52:44.001Z,0.90
2023-05-01T08:55:19.672Z,1.10
2023-05-01T08:57:49.383Z,0.90
2023-05-01T09:00:20.282Z,1.20
2023-05-01T09:02:50.510Z,0.93
2023-05-01T09:05:19.840Z,1.03
2023-05-01T09:07:50.659Z,0.97
2023-05-01T09:10:24.997Z,1.23
2023-05-01T09:12:58.800Z,1.03
2023-05-01T09:15:29.470Z,1.00
2023-05-01T09:18:03.293Z,0.70
2023-05-01T09:20:32.889Z,1.10
2023-05-01T09:23:00.997Z,1.07
2023-05-01T09:25:29.508Z,0.97
2023-05-01T09:27:57.704Z,1.63
2023-05-01T09:30:36.745Z,1.10
2023-05-01T09:33:09.027Z,1.33
2023-05-01T09:35:51.804Z,1.10
2023-05-01T09:38:22.029Z,1.47
2023-05-01T09:40:50.976Z,1.70
2023-05-01T09:43:27.156Z,1.47
2023-05-01T09:46:11.940Z,1.70
2023-05-01T09:48:41.858Z,1.83
2023-05-01T09:51:23.996Z,1.40
2023-05-01T09:53:52.682Z,1.60
2023-05-01T09:56:24.523Z,1.30
2023-05-01T09:58:53.561Z,1.80
2023-05-01T10:01:46.634Z,1.70
2023-05-01T10:04:15.089Z,1.80
2023-05-01T10:06:43.172Z,2.37
2023-05-01T10:09:17.870Z,2.20
2023-05-01T10:11:56.498Z,2.20
2023-05-01T10:14:28.656Z,2.20
2023-05-01T10:16:59.788Z,2.17
2023-05-01T10:19:31.662Z,2.10
2023-05-01T10:22:00.283Z,1.60
2023-05-01T10:24:28.634Z,1.70
2023-05-01T10:26:56.958Z,1.70
2023-05-01T10:29:28.578Z,2.60
2023-05-01T10:31:57.130Z,1.70
2023-05-01T10:34:27.815Z,1.40
2023-05-01T10:37:01.485Z,1.50
2023-05-01T10:39:37.851Z,1.37
2023-05-01T10:42:11.696Z,2.07
2023-05-01T10:44:41.595Z,1.63
2023-05-01T10:47:25.225Z,1.77
2023-05-01T10:50:29.213Z,1.70
2023-05-01T10:53:12.439Z,1.80
2023-05-01T10:55:45.347Z,1.90
2023-05-01T10:58:35.481Z,2.10
2023-05-01T11:01:28.698Z,2.37
2023-05-01T11:03:57.994Z,2.07
2023-05-01T11:06:28.209Z,1.83
2023-05-01T11:08:57.526Z,1.77
2023-05-01T11:11:25.774Z,2.00
2023-05-01T11:14:04.720Z,2.13
2023-05-01T11:16:42.783Z,1.90
2023-05-01T11:19:32.029Z,2.10
2023-05-01T11:22:01.008Z,2.23
2023-05-01T11:24:33.390Z,2.17
2023-05-01T11:27:05.244Z,2.00
2023-05-01T11:29:37.626Z,2.07
2023-05-01T11:32:06.454Z,1.60
2023-05-01T11:34:38.238Z,1.40
2023-05-01T11:37:06.921Z,1.30
2023-05-01T11:39:35.943Z,1.30
2023-05-01T11:42:11.024Z,1.00
2023-05-01T11:44:39.369Z,1.13
2023-05-01T11:47:09.440Z,1.10
2023-05-01T11:49:39.860Z,1.47
2023-05-01T11:52:09.573Z,1.10
2023-05-01T11:54:48.612Z,1.40
2023-05-01T11:57:17.324Z,1.40
2023-05-01T11:59:47.698Z,1.50
2023-05-01T12:02:20.917Z,1.17
2023-05-01T12:04:51.925Z,1.40
2023-05-01T12:07:24.139Z,1.50
2023-05-01T12:09:52.465Z,1.70
2023-05-01T12:12:20.662Z,1.30
2023-05-01T12:14:48.824Z,1.60
2023-05-01T12:17:17.284Z,1.50
2023-05-01T12:19:49.429Z,1.40
2023-05-01T12:22:18.226Z,1.83
2023-05-01T12:24:53.354Z,2.00
2023-05-01T12:27:21.962Z,2.00
2023-05-01T12:29:50.154Z,2.03
2023-05-01T12:32:18.711Z,1.77
2023-05-01T12:34:47.294Z,2.40
2023-05-01T12:37:15.414Z,2.10
2023-05-01T12:39:45.146Z,2.47
2023-05-01T12:42:15.119Z,2.67
2023-05-01T12:44:45.609Z,1.90
2023-05-01T12:47:13.906Z,2.20
2023-05-01T12:49:42.428Z,2.13
2023-05-01T12:52:10.412Z,1.63
2023-05-01T12:54:41.133Z,1.97
2023-05-01T12:57:10.648Z,1.83
2023-05-01T12:59:40.359Z,1.93
2023-05-01T13:02:16.426Z,2.20
2023-05-01T13:04:45.508Z,2.60
2023-05-01T13:07:15.489Z,2.90
2023-05-01T13:10:01.740Z,2.70
2023-05-01T13:12:32.889Z,2.47
2023-05-01T13:15:00.963Z,2.60
2023-05-01T13:17:31.575Z,2.63
2023-05-01T13:20:02.617Z,2.70
2023-05-01T13:22:41.399Z,2.60
2023-05-01T13:25:19.278Z,2.63
2023-05-01T13:27:50.250Z,2.40
2023-05-01T13:30:32.231Z,2.20
2023-05-01T13:33:02.235Z,2.60
2023-05-01T13:35:31.649Z,2.53
2023-05-01T13:38:06.270Z,2.60
2023-05-01T13:40:34.657Z,2.40
2023-05-01T13:43:03.810Z,2.60
2023-05-01T13:45:32.457Z,2.60
2023-05-01T13:48:00.973Z,2.63
2023-05-01T13:50:29.215Z,2.63
2023-05-01T13:52:57.466Z,3.33
2023-05-01T13:55:25.668Z,3.00
2023-05-01T13:57:54.132Z,2.90
2023-05-01T14:00:22.904Z,2.70
2023-05-01T14:02:53.761Z,2.40
2023-05-01T14:05:27.999Z,2.73
2023-05-01T14:07:59.785Z,2.60
2023-05-01T14:10:30.051Z,2.87
2023-05-01T14:12:59.556Z,2.77
2023-05-01T14:15:29.095Z,3.03
2023-05-01T14:17:58.894Z,3.10
2023-05-01T14:20:27.760Z,3.00
2023-05-01T14:22:55.794Z,3.03
2023-05-01T14:25:26.356Z,3.10
2023-05-01T14:27:55.799Z,3.63
2023-05-01T14:30:40.571Z,3.57
2023-05-01T14:33:11.655Z,2.90
2023-05-01T14:35:51.613Z,3.40
2023-05-01T14:38:22.266Z,3.03
2023-05-01T14:40:53.059Z,2.80
2023-05-01T14:43:24.275Z,2.83
2023-05-01T14:45:56.529Z,3.10
2023-05-01T14:48:26.647Z,3.47
2023-05-01T14:50:55.383Z,3.17
2023-05-01T14:53:23.643Z,2.97
2023-05-01T14:55:55.518Z,3.83
2023-05-01T14:58:24.456Z,2.80
2023-05-01T15:00:53.033Z,3.47
2023-05-01T15:03:21.657Z,3.40
2023-05-01T15:05:50.072Z,3.63
2023-05-01T15:08:18.761Z,3.90
2023-05-01T15:10:49.018Z,3.90
2023-05-01T15:13:17.236Z,3.20
2023-05-01T15:15:45.310Z,3.57
2023-05-01T15:18:14.194Z,3.37
2023-05-01T15:20:43.828Z,3.40
2023-05-01T15:23:12.104Z,3.50
2023-05-01T15:25:41.002Z,3.50
2023-05-01T15:28:12.845Z,4.07
2023-05-01T15:30:46.233Z,4.00
2023-05-01T15:33:17.136Z,3.60
2023-05-01T15:35:49.073Z,3.20
2023-05-01T15:38:17.236Z,3.07
2023-05-01T15:40:48.563Z,3.23
2023-05-01T15:43:17.244Z,3.30
2023-05-01T15:45:45.430Z,3.63
2023-05-01T15:48:34.398Z,3.63
2023-05-01T15:51:03.012Z,3.90
2023-05-01T15:53:31.260Z,3.30
2023-05-01T15:55:59.248Z,3.47
2023-05-01T15:58:30.645Z,3.47
2023-05-01T16:00:58.651Z,3.20
2023-05-01T16:03:27.632Z,3.30
2023-05-01T16:05:56.738Z,2.97
2023-05-01T16:08:24.983Z,2.90
2023-05-01T16:10:54.225Z,3.23
2023-05-01T16:13:25.313Z,3.37
2023-05-01T16:15:53.704Z,3.10
2023-05-01T16:18:27.480Z,3.03
2023-05-01T16:20:57.090Z,3.10
2023-05-01T16:23:27.502Z,3.47
2023-05-01T16:25:56.313Z,3.30
2023-05-01T16:28:28.668Z,3.50
2023-05-01T16:30:57.638Z,4.20
2023-05-01T16:33:26.058Z,4.47
2023-05-01T16:35:55.174Z,5.00
2023-05-01T16:38:23.705Z,3.40
2023-05-01T16:40:54.841Z,3.10
2023-05-01T16:43:23.284Z,3.60
2023-05-01T16:45:54.424Z,3.97
2023-05-01T16:48:24.408Z,4.90
2023-05-01T16:50:52.840Z,5.10
2023-05-01T16:53:21.068Z,6.23
2023-05-01T16:55:49.151Z,5.63
2023-05-01T16:58:18.416Z,5.20
2023-05-01T17:00:47.318Z,5.93
2023-05-01T17:03:16.665Z,6.00
2023-05-01T17:05:45.176Z,6.77
2023-05-01T17:08:13.730Z,6.50
2023-05-01T17:10:44.681Z,8.40
2023-05-01T17:13:15.844Z,8.63
2023-05-01T17:15:43.965Z,8.70
2023-05-01T17:18:12.157Z,9.67
2023-05-01T17:20:40.624Z,12.43
2023-05-01T17:23:10.108Z,18.00
2023-05-01T17:25:38.584Z,12.57
2023-05-01T17:28:09.643Z,17.87
2023-05-01T17:30:37.970Z,14.63
2023-05-01T17:33:06.762Z,11.60
2023-05-01T17:35:35.034Z,16.93
2023-05-01T17:38:03.907Z,15.20
2023-05-01T17:40:32.905Z,14.80
2023-05-01T17:43:01.428Z,22.03
2023-05-01T17:45:30.072Z,15.20
2023-05-01T17:47:58.757Z,18.83
2023-05-01T17:50:26.722Z,21.87
2023-05-01T17:52:55.456Z,19.27
2023-05-01T17:55:24.117Z,24.10
2023-05-01T17:57:52.762Z,34.73
2023-05-01T18:00:21.557Z,23.97
2023-05-01T18:02:49.761Z,24.23
2023-05-01T18:05:17.875Z,28.40
2023-05-01T18:07:48.846Z,21.87
2023-05-01T18:10:16.960Z,42.20
2023-05-01T18:12:47.455Z,31.83
2023-05-01T18:15:21.964Z,33.67
2023-05-01T18:17:51.404Z,36.67
2023-05-01T18:20:20.050Z,43.17
2023-05-01T18:22:49.410Z,26.27
2023-05-01T18:25:17.908Z,24.67
2023-05-01T18:27:47.266Z,17.30
2023-05-01T18:30:15.816Z,14.67
2023-05-01T18:32:47.535Z,14.67
2023-05-01T18:35:19.242Z,10.77
2023-05-01T18:37:47.562Z,24.57
2023-05-01T18:40:15.700Z,32.40
2023-05-01T18:42:44.628Z,22.30
2023-05-01T18:45:13.135Z,22.67
2023-05-01T18:47:41.851Z,20.63
2023-05-01T18:50:13.527Z,22.73
2023-05-01T18:52:42.688Z,20.40
2023-05-01T18:55:11.872Z,18.33
2023-05-01T18:57:43.847Z,31.37
2023-05-01T19:00:14.547Z,22.83
2023-05-01T19:02:43.079Z,17.53
2023-05-01T19:05:11.455Z,14.33
2023-05-01T19:07:43.380Z,16.07
2023-05-01T19:10:11.620Z,15.00
2023-05-01T19:12:41.394Z,15.37
2023-05-01T19:15:11.014Z,14.80
2023-05-01T19:17:39.847Z,17.73
2023-05-01T19:20:08.559Z,35.40
2023-05-01T19:22:39.774Z,19.93
2023-05-01T19:25:09.033Z,16.77
2023-05-01T19:27:37.885Z,18.10
2023-05-01T19:30:08.679Z,18.53
2023-05-01T19:32:37.037Z,26.90
2023-05-01T19:35:06.083Z,22.23
2023-05-01T19:37:36.227Z,27.73
2023-05-01T19:40:04.994Z,27.60
2023-05-01T19:42:35.916Z,40.47
2023-05-01T19:45:04.267Z,24.37
2023-05-01T19:47:33.039Z,25.63
2023-05-01T19:50:01.792Z,23.87
2023-05-01T19:52:34.601Z,23.70
2023-05-01T19:55:04.754Z,22.30
2023-05-01T19:57:36.794Z,24.60
2023-05-01T20:00:07.914Z,24.13
2023-05-01T20:02:36.743Z,24.17
2023-05-01T20:05:05.105Z,24.53
2023-05-01T20:07:34.720Z,26.20
2023-05-01T20:10:04.800Z,28.13
2023-05-01T20:12:33.300Z,31.90
2023-05-01T20:15:01.708Z,38.20
2023-05-01T20:17:30.061Z,37.47
2023-05-01T20:19:58.128Z,26.50
2023-05-01T20:22:26.623Z,27.50
2023-05-01T20:24:57.484Z,25.83
2023-05-01T20:27:26.800Z,27.63
2023-05-01T20:29:55.080Z,46.07
2023-05-01T20:32:23.985Z,34.47
2023-05-01T20:34:56.012Z,54.80
2023-05-01T20:37:26.038Z,57.03
2023-05-01T20:39:55.341Z,55.07
2023-05-01T20:42:23.971Z,48.37
2023-05-01T20:44:52.588Z,44.13
2023-05-01T20:47:20.622Z,37.13
2023-05-01T20:49:51.411Z,55.37
2023-05-01T20:52:20.540Z,26.07
2023-05-01T20:54:51.976Z,25.23
2023-05-01T20:57:20.268Z,29.17
2023-05-01T20:59:49.326Z,33.00
2023-05-01T21:02:17.779Z,32.37
2023-05-01T21:04:46.889Z,32.80
2023-05-01T21:07:15.101Z,31.10
2023-05-01T21:09:46.631Z,25.20
2023-05-01T21:12:15.136Z,29.37
2023-05-01T21:14:47.576Z,28.07
2023-05-01T21:17:19.277Z,31.17
2023-05-01T21:19:47.700Z,32.50
2023-05-01T21:22:18.630Z,29.17
2023-05-01T21:24:57.656Z,28.63
2023-05-01T21:27:27.421Z,26.17
2023-05-01T21:30:00.933Z,25.07
2023-05-01T21:32:32.904Z,24.40
2023-05-01T21:35:02.091Z,22.13
2023-05-01T21:37:30.338Z,20.33
2023-05-01T21:40:01.910Z,27.13
2023-05-01T21:42:32.278Z,28.03
2023-05-01T21:45:10.736Z,19.80
2023-05-01T21:47:49.688Z,24.00
2023-05-01T21:50:19.516Z,46.23
2023-05-01T21:52:49.599Z,33.97
2023-05-01T21:55:23.788Z,27.80
2023-05-01T21:57:51.945Z,25.23
2023-05-01T22:00:21.280Z,19.20
2023-05-01T22:02:51.663Z,30.77
2023-05-01T22:05:22.840Z,25.37
2023-05-01T22:07:55.008Z,22.77
2023-05-01T22:10:23.654Z,20.20
2023-05-01T22:12:51.947Z,21.37
2023-05-01T22:15:19.974Z,22.23
2023-05-01T22:17:47.942Z,23.10
2023-05-01T22:20:16.264Z,21.20
2023-05-01T22:22:44.883Z,21.00
2023-05-01T22:25:13.796Z,22.20
2023-05-01T22:27:42.638Z,19.47
2023-05-01T22:30:11.425Z,19.47
2023-05-01T22:32:40.418Z,28.37
2023-05-01T22:35:09.330Z,28.57
2023-05-01T22:37:38.060Z,24.13
2023-05-01T22:40:06.952Z,26.93
2023-05-01T22:42:35.578Z,22.23
2023-05-01T22:45:03.877Z,18.93
2023-05-01T22:47:33.090Z,27.47
2023-05-01T22:50:01.845Z,16.67
2023-05-01T22:52:30.363Z,13.27
2023-05-01T22:54:58.344Z,14.77
2023-05-01T22:57:26.706Z,15.47
2023-05-01T22:59:57.725Z,13.37
2023-05-01T23:02:26.275Z,14.47
2023-05-01T23:04:54.811Z,18.40
2023-05-01T23:07:22.866Z,14.27
2023-05-01T23:09:51.082Z,13.67
2023-05-01T23:12:22.892Z,12.70
2023-05-01T23:14:51.099Z,12.47
2023-05-01T23:17:19.211Z,12.23
2023-05-01T23:19:47.539Z,11.50
2023-05-01T23:22:15.698Z,11.97
2023-05-01T23:24:48.725Z,14.10
2023-05-01T23:27:18.384Z,12.67
2023-05-01T23:29:54.377Z,12.83
2023-05-01T23:32:29.713Z,12.73
2023-05-01T23:35:13.572Z,12.90
2023-05-01T23:37:42.505Z,14.07
2023-05-01T23:40:11.949Z,16.70
2023-05-01T23:42:40.565Z,14.90
2023-05-01T23:45:09.611Z,15.23
2023-05-01T23:47:39.138Z,14.23
2023-05-01T23:50:07.847Z,14.60
2023-05-01T23:52:40.559Z,13.07
2023-05-01T23:55:08.860Z,12.77
2023-05-01T23:57:37.243Z,15.57
